Time;durP1;ratioP1;P1;durP2;ratioP2;P2;SDS_P1;SDS_P2;PMS_P1;PMS_P2;Temp;Humidity;BMP_temperature;BMP_pressure;BME280_temperature;BME280_humidity;BME280_pressure;Samples;Min_cycle;Max_cycle;Signal;HPM_P1;HPM_P2
2022/05/03 00:01:02;;;;;;;11.68;7.68;;;11.30;99.90;;;;;;5021194;28;20046;-67
2022/05/03 00:03:32;;;;;;;10.85;6.30;;;11.30;99.90;;;;;;5033381;28;20498;-67
2022/05/03 00:06:04;;;;;;;11.30;6.82;;;11.30;99.90;;;;;;5032670;28;20142;-66
2022/05/03 00:08:40;;;;;;;11.68;6.15;;;11.30;99.90;;;;;;5033191;28;20029;-67
2022/05/03 00:11:29;;;;;;;10.65;6.55;;;11.30;99.90;;;;;;5032771;28;20482;-67
2022/05/03 00:14:15;;;;;;;11.95;7.53;;;11.30;99.90;;;;;;5032960;28;20033;-66
2022/05/03 00:16:41;;;;;;;10.45;6.40;;;11.30;99.90;;;;;;5032943;28;20549;-66
2022/05/03 00:19:07;;;;;;;11.93;6.82;;;11.30;99.90;;;;;;5032738;28;20044;-66
2022/05/03 00:21:38;;;;;;;11.48;6.80;;;11.20;99.90;;;;;;5032853;28;20034;-66
2022/05/03 00:24:05;;;;;;;11.52;6.68;;;11.20;99.90;;;;;;5032663;28;20037;-66
2022/05/03 00:26:31;;;;;;;13.68;7.10;;;11.20;99.90;;;;;;5032635;28;20045;-66
2022/05/03 00:28:58;;;;;;;11.00;6.65;;;11.10;99.90;;;;;;5032562;28;20033;-66
2022/05/03 00:31:25;;;;;;;10.88;6.40;;;11.10;99.90;;;;;;5032681;28;20040;-67
2022/05/03 00:33:53;;;;;;;11.25;6.57;;;11.10;99.90;;;;;;5014942;28;20038;-67
2022/05/03 00:36:18;;;;;;;12.20;7.05;;;11.00;99.90;;;;;;5032545;28;20033;-66
2022/05/03 00:38:44;;;;;;;10.85;6.40;;;10.90;99.90;;;;;;5032526;28;20168;-66
2022/05/03 00:41:15;;;;;;;10.50;6.72;;;10.90;99.90;;;;;;5032413;28;20401;-66
2022/05/03 00:43:52;;;;;;;9.85;6.68;;;10.80;99.90;;;;;;5032496;28;20045;-66
2022/05/03 00:46:22;;;;;;;11.05;6.97;;;10.80;99.90;;;;;;5032549;28;20535;-66
2022/05/03 00:49:06;;;;;;;10.55;6.65;;;10.80;99.90;;;;;;5032424;28;20028;-66
2022/05/03 00:51:47;;;;;;;8.35;5.93;;;10.70;99.90;;;;;;5037369;28;20474;-66
2022/05/03 00:54:28;;;;;;;11.77;7.30;;;10.80;99.90;;;;;;5038991;28;20481;-66
2022/05/03 00:57:31;;;;;;;10.77;7.15;;;10.70;99.90;;;;;;5038848;28;20088;-66
2022/05/03 01:00:13;;;;;;;13.07;7.35;;;10.60;99.90;;;;;;5038964;28;20049;-66
2022/05/03 01:02:48;;;;;;;13.63;7.03;;;10.60;99.90;;;;;;5038883;28;20055;-66
2022/05/03 01:05:20;;;;;;;13.55;8.05;;;10.60;99.90;;;;;;5038737;28;20033;-67
2022/05/03 01:08:07;;;;;;;10.38;7.32;;;10.60;99.90;;;;;;5039224;28;20403;-67
2022/05/03 01:10:38;;;;;;;13.18;7.43;;;10.60;99.90;;;;;;5038788;28;20033;-67
2022/05/03 01:13:16;;;;;;;10.43;6.80;;;10.70;99.90;;;;;;5038868;28;20018;-67
2022/05/03 01:15:46;;;;;;;10.40;6.68;;;10.70;99.90;;;;;;5038868;28;20088;-67
2022/05/03 01:18:14;;;;;;;11.82;6.18;;;10.70;99.90;;;;;;5038592;28;20036;-67
2022/05/03 01:20:39;;;;;;;;;;;10.70;99.90;;;;;;5039190;28;20040;-66
2022/05/03 01:23:11;;;;;;;11.00;7.00;;;10.70;99.90;;;;;;5038586;28;20365;-66
2022/05/03 01:25:58;;;;;;;10.82;6.72;;;10.70;99.90;;;;;;5039108;28;20029;-66
2022/05/03 01:28:59;;;;;;;9.07;6.80;;;10.70;99.90;;;;;;5038656;28;20033;-66
2022/05/03 01:31:28;;;;;;;12.32;7.85;;;10.60;99.90;;;;;;5038570;28;20037;-66
2022/05/03 01:34:02;;;;;;;12.68;7.22;;;10.60;99.90;;;;;;5038623;28;20405;-66
2022/05/03 01:36:59;;;;;;;16.10;7.63;;;10.60;99.90;;;;;;5038721;28;20033;-66
2022/05/03 01:39:46;;;;;;;12.75;7.30;;;10.60;99.90;;;;;;5013021;28;20044;-66
2022/05/03 01:42:50;;;;;;;13.57;7.72;;;10.60;99.90;;;;;;5038601;28;20048;-66
2022/05/03 01:45:36;;;;;;;12.55;7.63;;;10.60;99.90;;;;;;5038597;28;20513;-66
2022/05/03 01:50:18;;;;;;;12.52;6.97;;;10.70;99.90;;;;;;5020470;28;20037;-66
2022/05/03 01:51:41;;;;;;;15.45;8.40;;;10.70;99.90;;;;;;5038441;28;20486;-65
2022/05/03 01:54:54;;;;;;;13.70;7.68;;;10.70;99.90;;;;;;5038736;28;20502;-66
2022/05/03 01:57:28;;;;;;;14.75;8.00;;;10.70;99.90;;;;;;5020371;28;20176;-67
2022/05/03 01:59:57;;;;;;;14.35;7.75;;;10.60;99.90;;;;;;5038371;28;20128;-67
2022/05/03 02:02:43;;;;;;;11.25;6.93;;;10.60;99.90;;;;;;5035599;28;20116;-68
2022/05/03 02:05:25;;;;;;;12.93;7.53;;;10.60;99.90;;;;;;5035202;28;20505;-67
2022/05/03 02:07:55;;;;;;;17.27;7.32;;;10.60;99.90;;;;;;5035046;28;20045;-67
2022/05/03 02:11:24;;;;;;;13.88;8.02;;;10.50;99.90;;;;;;5017363;28;20045;-67
2022/05/03 02:16:47;;;;;;;12.55;7.50;;;10.60;99.90;;;;;;4974227;28;20093;-66
2022/05/03 02:19:33;;;;;;;13.80;8.00;;;10.70;99.90;;;;;;5014985;28;20083;-67
2022/05/03 02:22:31;;;;;;;15.35;8.45;;;10.60;99.90;;;;;;5034946;28;20072;-67
2022/05/03 02:25:02;;;;;;;13.07;7.63;;;10.70;99.90;;;;;;5001605;28;20497;-67
2022/05/03 02:27:31;;;;;;;17.65;8.18;;;10.60;99.90;;;;;;5050213;28;20041;-67
2022/05/03 02:29:58;;;;;;;15.38;7.65;;;10.70;99.90;;;;;;5035089;28;20076;-67
2022/05/03 02:32:36;;;;;;;15.85;8.15;;;10.70;99.90;;;;;;5034630;28;20021;-67
2022/05/03 02:35:06;;;;;;;13.00;7.20;;;10.70;99.90;;;;;;5034717;28;20040;-67
2022/05/03 02:37:39;;;;;;;14.20;7.53;;;10.70;99.90;;;;;;5034697;28;20041;-67
2022/05/03 02:40:11;;;;;;;15.57;8.02;;;10.70;99.90;;;;;;5049883;28;20049;-68
2022/05/03 02:42:37;;;;;;;15.68;8.10;;;10.70;99.90;;;;;;5034856;28;20041;-68
2022/05/03 02:45:05;;;;;;;14.27;7.80;;;10.60;99.90;;;;;;5034503;28;20613;-67
2022/05/03 02:47:44;;;;;;;12.63;7.53;;;10.70;99.90;;;;;;5034408;28;20029;-68
2022/05/03 02:50:37;;;;;;;15.95;7.97;;;10.70;99.90;;;;;;5034307;28;20041;-67
2022/05/03 02:53:08;;;;;;;13.77;7.63;;;10.70;99.90;;;;;;5028162;28;20041;-67
2022/05/03 02:55:58;;;;;;;13.80;8.13;;;10.70;99.90;;;;;;5034320;28;20112;-67
2022/05/03 02:58:50;;;;;;;13.23;7.68;;;10.70;99.90;;;;;;5034185;28;20071;-68
2022/05/03 03:01:49;;;;;;;12.40;7.70;;;10.60;99.90;;;;;;5033918;28;20057;-67
2022/05/03 03:04:30;;;;;;;13.48;7.85;;;10.60;99.90;;;;;;5034221;28;20482;-68
2022/05/03 03:06:56;;;;;;;14.40;7.53;;;10.60;99.90;;;;;;5034116;28;20116;-68
2022/05/03 03:09:36;;;;;;;15.95;7.68;;;10.60;99.90;;;;;;5033876;28;20083;-68
2022/05/03 03:12:26;;;;;;;14.18;7.88;;;10.60;99.90;;;;;;5033870;28;20041;-68
2022/05/03 03:15:02;;;;;;;14.57;6.90;;;10.60;99.90;;;;;;5033845;28;20378;-68
2022/05/03 03:17:29;;;;;;;14.40;7.97;;;10.60;99.90;;;;;;5033931;28;20515;-69
2022/05/03 03:20:05;;;;;;;11.93;7.72;;;10.60;99.90;;;;;;5033650;28;20041;-68
2022/05/03 03:22:39;;;;;;;12.73;7.28;;;10.60;99.90;;;;;;5033979;28;20103;-68
2022/05/03 03:25:06;;;;;;;11.57;6.97;;;10.70;99.90;;;;;;5033751;28;20037;-68
2022/05/03 03:27:33;;;;;;;11.20;7.18;;;10.80;99.90;;;;;;5033600;28;20057;-68
2022/05/03 03:30:02;;;;;;;10.87;6.57;;;10.70;99.90;;;;;;5033653;28;20449;-68
2022/05/03 03:32:27;;;;;;;16.50;8.85;;;10.60;99.90;;;;;;5033528;28;20036;-68
2022/05/03 03:34:54;;;;;;;13.98;7.63;;;10.50;99.90;;;;;;5033754;28;20112;-67
2022/05/03 03:37:24;;;;;;;12.02;7.05;;;10.50;99.90;;;;;;5033448;28;20048;-68
2022/05/03 03:39:49;;;;;;;12.57;7.20;;;10.50;99.90;;;;;;5033453;28;20045;-68
2022/05/03 03:42:15;;;;;;;12.70;7.53;;;10.60;99.90;;;;;;5033473;28;20084;-68
2022/05/03 03:44:41;;;;;;;14.23;7.18;;;10.60;99.90;;;;;;5033568;28;20038;-68
2022/05/03 03:47:08;;;;;;;12.02;7.03;;;10.60;99.90;;;;;;5033144;28;20037;-68
2022/05/03 03:49:34;;;;;;;15.15;8.07;;;10.70;99.90;;;;;;5033184;28;20045;-68
2022/05/03 03:52:01;;;;;;;13.20;7.50;;;10.60;99.90;;;;;;5033130;28;20555;-68
2022/05/03 03:54:27;;;;;;;12.20;7.57;;;10.60;99.90;;;;;;5033304;28;20076;-68
2022/05/03 03:56:54;;;;;;;13.82;8.02;;;10.50;99.90;;;;;;5033219;28;20474;-68
2022/05/03 03:59:20;;;;;;;14.60;8.30;;;10.50;99.90;;;;;;5032957;28;20040;-68
2022/05/03 04:01:48;;;;;;;15.23;8.05;;;10.40;99.90;;;;;;5033015;28;20041;-68
2022/05/03 04:04:14;;;;;;;;;;;10.50;99.90;;;;;;5033594;28;20045;-68
2022/05/03 04:06:40;;;;;;;10.57;6.95;;;10.50;99.90;;;;;;5032919;28;19963;-68
2022/05/03 04:09:06;;;;;;;15.93;7.57;;;10.50;99.90;;;;;;5032963;28;20109;-68
2022/05/03 04:11:43;;;;;;;14.57;7.32;;;10.60;99.90;;;;;;5032986;28;20030;-68
2022/05/03 04:14:09;;;;;;;13.65;7.72;;;10.50;99.90;;;;;;5033140;28;20485;-68
2022/05/03 04:16:34;;;;;;;16.50;7.65;;;10.50;99.90;;;;;;5032844;28;20037;-68
2022/05/03 04:19:00;;;;;;;12.90;7.72;;;10.50;99.90;;;;;;5032805;28;20402;-68
2022/05/03 04:21:26;;;;;;;19.65;8.68;;;10.40;99.90;;;;;;5033183;28;20045;-69
2022/05/03 04:23:51;;;;;;;12.55;7.97;;;10.40;99.90;;;;;;5032802;28;20033;-68
2022/05/03 04:26:17;;;;;;;13.32;7.55;;;10.40;99.90;;;;;;5032061;28;20034;-68
2022/05/03 04:28:43;;;;;;;13.18;7.57;;;10.40;99.90;;;;;;5033069;28;20531;-68
2022/05/03 04:31:08;;;;;;;14.85;7.45;;;10.40;99.90;;;;;;5032751;28;20068;-68
2022/05/03 04:33:34;;;;;;;13.57;8.07;;;10.40;99.90;;;;;;5032937;28;20065;-68
2022/05/03 04:36:00;;;;;;;12.30;7.28;;;10.40;99.90;;;;;;5032668;28;20144;-68
2022/05/03 04:38:25;;;;;;;13.43;8.18;;;10.40;99.90;;;;;;5032629;28;20048;-68
2022/05/03 04:40:58;;;;;;;13.60;7.95;;;10.30;99.90;;;;;;5032471;28;20034;-68
2022/05/03 04:43:24;;;;;;;14.77;7.88;;;10.40;99.90;;;;;;5032708;28;20574;-68
2022/05/03 04:45:51;;;;;;;14.48;7.45;;;10.30;99.90;;;;;;5032555;28;20113;-68
2022/05/03 04:48:16;;;;;;;11.80;7.20;;;10.40;99.90;;;;;;5032558;28;20034;-68
2022/05/03 04:50:42;;;;;;;13.55;8.20;;;10.30;99.90;;;;;;5032465;28;20431;-68
2022/05/03 04:53:08;;;;;;;13.65;7.90;;;10.30;99.90;;;;;;5032425;28;20030;-68
2022/05/03 04:55:38;;;;;;;11.93;8.10;;;10.30;99.90;;;;;;5032298;28;20042;-68
2022/05/03 04:58:04;;;;;;;12.65;7.15;;;10.30;99.90;;;;;;5032563;28;20418;-68
2022/05/03 05:00:29;;;;;;;12.20;6.55;;;10.30;99.90;;;;;;5032365;28;20049;-68
2022/05/03 05:02:55;;;;;;;14.18;8.05;;;10.30;99.90;;;;;;5032049;28;20068;-68
2022/05/03 05:05:20;;;;;;;12.85;8.00;;;10.30;99.90;;;;;;5032280;28;20068;-68
2022/05/03 05:07:46;;;;;;;11.73;7.72;;;10.40;99.90;;;;;;5032257;28;20033;-67
2022/05/03 05:10:24;;;;;;;15.30;8.48;;;10.40;99.90;;;;;;5032109;28;20036;-68
2022/05/03 05:12:54;;;;;;;12.75;7.75;;;10.40;99.90;;;;;;5032157;28;20045;-67
2022/05/03 05:15:26;;;;;;;11.23;7.35;;;10.40;99.90;;;;;;5032293;28;20234;-67
2022/05/03 05:17:56;;;;;;;11.43;7.88;;;10.40;99.90;;;;;;5032182;28;20141;-67
2022/05/03 05:20:23;;;;;;;12.13;7.78;;;10.50;99.90;;;;;;5032132;28;20383;-67
2022/05/03 05:22:49;;;;;;;13.88;7.82;;;10.60;99.90;;;;;;5031986;28;20042;-67
2022/05/03 05:25:14;;;;;;;12.00;7.45;;;10.60;99.90;;;;;;5036393;28;20069;-68
2022/05/03 05:27:41;;;;;;;12.23;7.95;;;10.70;99.90;;;;;;5037793;28;20095;-67
2022/05/03 05:30:08;;;;;;;11.20;7.03;;;10.80;99.90;;;;;;5041707;28;20037;-67
2022/05/03 05:32:34;;;;;;;10.88;7.35;;;10.80;99.90;;;;;;5051751;28;20033;-67
2022/05/03 05:35:00;;;;;;;11.88;7.25;;;10.80;99.90;;;;;;5031398;28;20037;-67
2022/05/03 05:37:26;;;;;;;11.75;6.97;;;10.80;99.90;;;;;;5047187;28;20045;-67
2022/05/03 05:39:52;;;;;;;14.30;7.45;;;10.90;99.90;;;;;;5053313;28;20041;-67
2022/05/03 05:42:18;;;;;;;11.80;6.68;;;10.90;99.90;;;;;;5045212;28;20569;-67
2022/05/03 05:44:43;;;;;;;11.57;7.00;;;11.00;99.90;;;;;;5047427;28;21341;-68
2022/05/03 05:47:09;;;;;;;13.65;7.32;;;10.90;99.90;;;;;;5025050;28;20069;-68
2022/05/03 05:49:35;;;;;;;11.10;7.00;;;11.00;99.90;;;;;;5045909;28;20029;-68
2022/05/03 05:54:45;;;;;;;10.43;7.32;;;11.10;99.90;;;;;;5046044;28;20087;-68
2022/05/03 05:57:11;;;;;;;12.65;7.10;;;11.20;99.90;;;;;;5043528;28;20423;-68
2022/05/03 05:59:37;;;;;;;11.32;7.03;;;11.30;99.90;;;;;;5045642;28;20073;-68
2022/05/03 06:02:02;;;;;;;12.02;7.10;;;11.40;99.90;;;;;;5045205;28;20041;-68
2022/05/03 06:04:28;;;;;;;13.23;7.82;;;11.40;99.90;;;;;;5048781;28;20088;-68
2022/05/03 06:06:57;;;;;;;10.77;7.28;;;11.50;99.90;;;;;;5036888;28;20041;-68
2022/05/03 06:09:23;;;;;;;13.95;7.72;;;11.60;99.90;;;;;;5019187;28;20038;-68
2022/05/03 06:11:49;;;;;;;14.73;8.15;;;11.60;99.90;;;;;;5035182;28;20548;-68
2022/05/03 06:14:15;;;;;;;13.32;8.43;;;11.50;99.90;;;;;;5035176;28;20041;-67
2022/05/03 06:16:51;;;;;;;12.90;7.57;;;11.60;99.90;;;;;;5034973;28;20038;-67
2022/05/03 06:19:17;;;;;;;15.60;7.65;;;11.60;99.90;;;;;;5035110;28;20545;-68
2022/05/03 06:21:42;;;;;;;13.02;7.90;;;11.70;99.90;;;;;;5034967;28;20427;-68
2022/05/03 06:24:08;;;;;;;11.10;7.15;;;11.90;99.90;;;;;;5034849;28;20073;-68
2022/05/03 06:26:34;;;;;;;12.07;7.40;;;12.00;99.90;;;;;;5034919;28;20033;-68
2022/05/03 06:29:01;;;;;;;9.50;6.65;;;12.10;99.90;;;;;;5017023;28;20037;-69
2022/05/03 06:31:28;;;;;;;11.98;7.20;;;12.20;99.90;;;;;;5034602;28;20061;-68
2022/05/03 06:33:55;;;;;;;9.93;7.40;;;12.20;99.90;;;;;;5034814;28;20084;-69
2022/05/03 06:36:21;;;;;;;8.27;6.47;;;12.40;99.90;;;;;;5034749;28;20259;-68
2022/05/03 06:38:47;;;;;;;12.73;6.65;;;12.50;99.90;;;;;;5034566;28;20072;-68
2022/05/03 06:41:13;;;;;;;10.43;6.88;;;12.60;99.90;;;;;;5034458;28;20026;-69
2022/05/03 06:43:39;;;;;;;10.05;6.28;;;12.60;99.90;;;;;;5034473;28;20034;-69
2022/05/03 06:46:05;;;;;;;17.45;8.27;;;12.70;99.90;;;;;;5034165;28;20034;-68
2022/05/03 06:48:30;;;;;;;13.15;6.60;;;12.70;99.30;;;;;;5033862;28;20041;-69
2022/05/03 06:50:56;;;;;;;8.50;5.85;;;12.70;99.90;;;;;;5034307;28;20084;-68
2022/05/03 06:53:22;;;;;;;10.30;6.22;;;13.00;99.90;;;;;;5034250;28;20104;-68
2022/05/03 06:55:47;;;;;;;10.75;6.18;;;13.20;99.90;;;;;;5034338;28;20033;-67
2022/05/03 06:58:13;;;;;;;10.63;6.25;;;13.40;99.10;;;;;;5034750;28;20180;-68
2022/05/03 07:00:39;;;;;;;8.20;5.93;;;13.50;98.50;;;;;;5034036;28;20367;-68
2022/05/03 07:03:06;;;;;;;9.60;5.85;;;13.70;98.20;;;;;;5033910;28;20079;-68
2022/05/03 07:05:31;;;;;;;9.25;5.57;;;13.80;98.60;;;;;;5034019;28;20049;-68
2022/05/03 07:07:57;;;;;;;9.90;5.90;;;14.10;97.90;;;;;;5033920;28;20049;-68
2022/05/03 07:10:23;;;;;;;13.25;6.80;;;14.20;97.80;;;;;;5033955;28;20029;-69
2022/05/03 07:12:49;;;;;;;9.38;6.28;;;14.30;97.80;;;;;;5033968;28;20033;-67
2022/05/03 07:15:14;;;;;;;13.32;6.95;;;14.40;97.40;;;;;;5033681;28;20022;-68
2022/05/03 07:23:11;;;;;;;11.45;7.00;;;14.70;95.70;;;;;;5033698;28;20533;-68
2022/05/03 07:25:38;;;;;;;11.98;7.50;;;14.70;96.20;;;;;;5033556;28;20049;-68
2022/05/03 07:28:05;;;;;;;13.90;7.18;;;14.70;95.40;;;;;;5033381;28;20041;-67
2022/05/03 07:30:31;;;;;;;14.98;8.18;;;14.70;95.80;;;;;;5033548;28;20041;-68
2022/05/03 07:32:56;;;;;;;12.65;8.20;;;14.80;95.00;;;;;;5033508;28;20034;-68
2022/05/03 07:35:24;;;;;;;14.55;8.32;;;14.90;94.40;;;;;;5033502;28;20087;-68
2022/05/03 07:37:50;;;;;;;15.55;8.18;;;14.90;95.30;;;;;;5033582;28;20410;-68
2022/05/03 07:40:16;;;;;;;14.50;8.82;;;14.90;94.80;;;;;;5033298;28;20033;-68
2022/05/03 07:42:42;;;;;;;15.05;9.02;;;14.90;94.60;;;;;;5033799;28;20532;-68
2022/05/03 07:45:09;;;;;;;16.38;8.55;;;15.00;94.80;;;;;;5034028;28;20034;-68
2022/05/03 07:47:35;;;;;;;16.02;9.32;;;15.10;94.70;;;;;;5032593;28;20040;-68
2022/05/03 07:50:02;;;;;;;17.67;9.13;;;15.10;94.70;;;;;;5033277;28;20108;-69
2022/05/03 07:52:28;;;;;;;16.10;9.13;;;15.10;94.70;;;;;;5034150;28;20030;-68
2022/05/03 07:54:55;;;;;;;15.27;9.02;;;15.10;94.00;;;;;;5033976;28;20037;-69
2022/05/03 07:57:21;;;;;;;18.45;9.23;;;15.20;94.50;;;;;;5015518;28;20075;-68
2022/05/03 07:59:46;;;;;;;18.80;10.13;;;15.30;94.30;;;;;;5033054;28;20029;-68
2022/05/03 08:02:12;;;;;;;17.70;9.93;;;15.30;93.50;;;;;;5031585;28;20057;-69
2022/05/03 08:04:39;;;;;;;18.52;10.52;;;15.20;93.40;;;;;;5032189;28;20117;-68
2022/05/03 08:07:05;;;;;;;17.38;10.10;;;15.40;93.90;;;;;;5032440;28;20068;-69
2022/05/03 08:09:32;;;;;;;17.13;9.75;;;15.40;93.90;;;;;;5032062;28;20489;-69
2022/05/03 08:12:00;;;;;;;18.50;9.63;;;15.50;93.50;;;;;;5032242;28;20029;-69
2022/05/03 08:14:27;;;;;;;;;;;15.50;92.80;;;;;;5032865;28;20504;-69
2022/05/03 08:16:53;;;;;;;17.33;8.75;;;15.50;93.40;;;;;;5031486;28;19951;-69
2022/05/03 08:19:19;;;;;;;17.00;8.65;;;15.70;93.50;;;;;;5032646;28;20061;-68
2022/05/03 08:21:44;;;;;;;14.82;9.15;;;16.00;92.70;;;;;;5032453;28;20034;-69
2022/05/03 08:24:10;;;;;;;14.60;8.90;;;16.20;92.80;;;;;;5032559;28;20056;-68
2022/05/03 08:26:36;;;;;;;17.35;9.55;;;16.20;92.70;;;;;;5032842;28;20490;-69
2022/05/03 08:29:02;;;;;;;20.25;9.98;;;16.40;93.00;;;;;;5031932;28;20466;-69
2022/05/03 08:31:28;;;;;;;17.80;9.98;;;16.30;92.50;;;;;;5032509;28;20033;-69
2022/05/03 08:33:53;;;;;;;15.70;8.93;;;16.30;92.30;;;;;;5032480;28;20079;-69
2022/05/03 08:36:19;;;;;;;19.40;10.77;;;16.40;91.30;;;;;;5031863;28;20060;-69
2022/05/03 08:44:13;;;;;;;19.80;11.00;;;16.30;91.90;;;;;;5031741;28;20032;-69
2022/05/03 08:46:42;;;;;;;18.15;10.65;;;16.30;92.40;;;;;;5031650;28;20037;-69
2022/05/03 08:49:14;;;;;;;19.92;11.38;;;16.50;91.90;;;;;;5031346;28;20044;-69
2022/05/03 08:51:43;;;;;;;18.23;11.57;;;16.60;91.80;;;;;;5031555;28;20034;-69
2022/05/03 08:54:09;;;;;;;19.60;10.63;;;16.80;91.50;;;;;;5031601;28;20443;-69
2022/05/03 08:56:35;;;;;;;18.58;10.55;;;16.80;91.40;;;;;;5031475;28;20041;-69
2022/05/03 08:59:01;;;;;;;19.27;11.25;;;16.90;91.40;;;;;;5031485;28;20034;-69
2022/05/03 09:01:27;;;;;;;20.13;11.05;;;17.00;92.10;;;;;;4983350;28;1377804;-70
2022/05/03 09:03:53;;;;;;;19.23;11.48;;;17.00;91.40;;;;;;5032296;28;20493;-69
2022/05/03 09:06:19;;;;;;;20.52;11.45;;;17.00;91.40;;;;;;5032166;28;20091;-69
2022/05/03 09:08:51;;;;;;;22.67;12.50;;;16.90;92.10;;;;;;5032140;28;20477;-69
2022/05/03 09:11:18;;;;;;;24.50;12.80;;;16.80;91.70;;;;;;5032634;28;20112;-69
2022/05/03 09:13:45;;;;;;;21.98;12.20;;;17.10;91.50;;;;;;5036339;28;20412;-69
2022/05/03 09:16:18;;;;;;;23.93;12.93;;;16.90;91.60;;;;;;5036318;28;20033;-69
2022/05/03 09:18:46;;;;;;;19.88;11.57;;;17.10;91.90;;;;;;5036294;28;20255;-69
2022/05/03 09:24:10;;;;;;;17.63;11.35;;;17.50;91.30;;;;;;5035966;28;20052;-69
2022/05/03 09:26:37;;;;;;;21.33;11.48;;;17.90;91.10;;;;;;5035815;28;20029;-69
2022/05/03 09:29:22;;;;;;;17.77;10.57;;;18.00;90.40;;;;;;5035942;28;20117;-69
2022/05/03 09:31:48;;;;;;;18.58;11.30;;;18.10;90.10;;;;;;5035892;28;20064;-69
2022/05/03 09:34:19;;;;;;;18.30;11.35;;;18.10;88.40;;;;;;5035796;28;20026;-69
2022/05/03 09:36:54;;;;;;;21.77;12.25;;;18.10;89.40;;;;;;5036104;28;20052;-69
2022/05/03 09:39:25;;;;;;;25.77;13.07;;;18.40;90.10;;;;;;5036734;28;20424;-69
2022/05/03 09:42:16;;;;;;;21.35;12.23;;;18.10;89.00;;;;;;5036523;28;20481;-68
2022/05/03 09:44:50;;;;;;;23.20;13.65;;;18.30;89.90;;;;;;5036242;28;20037;-69
2022/05/03 09:47:17;;;;;;;23.08;13.40;;;18.40;88.80;;;;;;5036154;28;20038;-69
2022/05/03 09:49:43;;;;;;;24.27;12.20;;;18.40;90.20;;;;;;5036561;28;20033;-69
2022/05/03 09:52:28;;;;;;;22.00;12.90;;;18.30;88.50;;;;;;5036176;28;20029;-69
2022/05/03 09:54:59;;;;;;;24.17;13.35;;;18.50;90.30;;;;;;5036546;28;20061;-69
2022/05/03 09:57:27;;;;;;;24.80;12.82;;;18.10;89.70;;;;;;5036017;28;20110;-69
2022/05/03 09:59:54;;;;;;;24.20;13.50;;;18.50;90.10;;;;;;5035918;28;20052;-69
2022/05/03 10:02:22;;;;;;;24.30;13.88;;;18.60;89.80;;;;;;5035838;28;20050;-69
2022/05/03 10:04:50;;;;;;;23.30;13.25;;;19.00;89.40;;;;;;5036076;28;20068;-68
2022/05/03 10:07:16;;;;;;;22.95;14.38;;;18.80;87.70;;;;;;5035180;28;20108;-68
2022/05/03 10:09:44;;;;;;;22.73;13.55;;;18.70;88.50;;;;;;5035274;28;20034;-69
2022/05/03 10:12:14;;;;;;;22.70;13.98;;;19.00;89.00;;;;;;5035013;28;20061;-69
2022/05/03 10:14:44;;;;;;;20.35;12.50;;;19.10;86.90;;;;;;5035083;28;20028;-68
2022/05/03 10:23:04;;;;;;;28.95;14.05;;;19.30;86.50;;;;;;5034055;28;20442;-69
2022/05/03 10:25:50;;;;;;;22.38;13.70;;;19.60;84.80;;;;;;5034907;28;20109;-69
2022/05/03 10:28:16;;;;;;;21.63;13.45;;;19.90;85.00;;;;;;5016979;28;20048;-68
2022/05/03 10:31:04;;;;;;;27.20;16.38;;;19.70;84.70;;;;;;5034835;28;20512;-69
2022/05/03 10:33:30;;;;;;;25.95;14.57;;;19.50;81.10;;;;;;5021966;28;20040;-70
2022/05/03 10:35:56;;;;;;;25.23;14.73;;;19.40;87.50;;;;;;5034777;28;20113;-69
2022/05/03 10:38:43;;;;;;;23.90;14.55;;;19.20;87.40;;;;;;5034612;28;20375;-69
2022/05/03 10:41:11;;;;;;;24.05;14.10;;;19.30;86.50;;;;;;5016757;28;20405;-70
2022/05/03 10:43:38;;;;;;;22.55;14.13;;;19.40;87.00;;;;;;5034464;28;20040;-70
2022/05/03 10:46:14;;;;;;;;;;;19.50;86.90;;;;;;5034891;28;20092;-70
2022/05/03 10:48:41;;;;;;;23.90;14.75;;;19.40;85.30;;;;;;5034426;28;19920;-69
2022/05/03 10:51:15;;;;;;;22.00;13.57;;;19.60;86.70;;;;;;5034306;28;20095;-70
2022/05/03 10:53:41;;;;;;;24.08;14.07;;;19.80;86.80;;;;;;5034435;28;20499;-71
2022/05/03 10:56:12;;;;;;;24.05;13.82;;;19.70;84.80;;;;;;5034056;28;20037;-71
2022/05/03 10:58:40;;;;;;;24.55;14.57;;;19.80;84.80;;;;;;5034158;28;20076;-71
2022/05/03 11:01:06;;;;;;;22.58;13.98;;;19.70;85.10;;;;;;5034151;28;20041;-70
2022/05/03 11:03:34;;;;;;;24.70;13.65;;;19.70;84.90;;;;;;5034307;28;20065;-70
2022/05/03 11:06:23;;;;;;;22.10;13.95;;;19.60;86.50;;;;;;5034064;28;20167;-70
2022/05/03 11:11:39;;;;;;;27.85;14.30;;;19.70;86.70;;;;;;5034029;28;20040;-70
2022/05/03 11:14:24;;;;;;;24.77;13.00;;;19.30;86.50;;;;;;5033822;28;20030;-70
2022/05/03 11:17:04;;;;;;;21.98;12.57;;;19.40;86.80;;;;;;5033710;28;20037;-69
2022/05/03 11:19:34;;;;;;;22.83;14.43;;;19.40;85.80;;;;;;5034091;28;20071;-71
2022/05/03 11:22:00;;;;;;;20.35;12.35;;;19.30;86.90;;;;;;5033705;28;20041;-70
2022/05/03 11:24:32;;;;;;;19.55;11.70;;;19.60;86.80;;;;;;5033741;28;20046;-70
2022/05/03 11:27:05;;;;;;;23.23;13.82;;;19.70;86.60;;;;;;5033570;28;20037;-71
2022/05/03 11:29:58;;;;;;;19.50;12.57;;;19.80;84.90;;;;;;5033510;28;20091;-71
2022/05/03 11:32:38;;;;;;;21.08;13.77;;;20.20;84.50;;;;;;5023807;28;20481;-70
2022/05/03 11:35:13;;;;;;;20.63;12.07;;;20.30;84.40;;;;;;5033551;28;20037;-70
2022/05/03 11:37:49;;;;;;;21.38;13.23;;;19.80;84.10;;;;;;5033500;28;20501;-71
2022/05/03 11:40:17;;;;;;;22.70;13.13;;;19.20;84.30;;;;;;5033445;28;20063;-70
2022/05/03 11:42:44;;;;;;;21.30;12.48;;;18.50;87.40;;;;;;5032184;28;20041;-70
2022/05/03 11:45:12;;;;;;;25.73;15.67;;;18.00;89.10;;;;;;5033235;28;20044;-69
2022/05/03 11:47:43;;;;;;;26.20;14.70;;;17.40;90.10;;;;;;5015607;28;20787;-70
2022/05/03 11:55:58;;;;;;;26.70;15.02;;;17.00;91.40;;;;;;5033127;28;20037;-69
2022/05/03 11:56:01;;;;;;;23.95;12.80;;;16.70;93.00;;;;;;5034129;28;20083;-69
2022/05/03 11:58:31;;;;;;;25.42;14.02;;;16.60;92.80;;;;;;5033087;28;20505;-69
2022/05/03 12:00:57;;;;;;;26.90;13.50;;;16.90;93.20;;;;;;5031679;28;20029;-69
2022/05/03 12:03:22;;;;;;;25.70;13.88;;;17.40;92.90;;;;;;5033218;28;20037;-69
2022/05/03 12:05:59;;;;;;;22.27;13.00;;;18.00;91.50;;;;;;5031955;28;20543;-70
2022/05/03 12:08:25;;;;;;;22.90;13.40;;;19.40;90.90;;;;;;5015126;28;20482;-68
2022/05/03 12:10:51;;;;;;;22.77;13.68;;;20.30;87.20;;;;;;5033497;28;20052;-69
2022/05/03 12:13:26;;;;;;;21.00;12.75;;;21.20;84.40;;;;;;5032675;28;20387;-70
2022/05/03 12:15:58;;;;;;;21.45;12.82;;;22.00;81.90;;;;;;5032859;28;20040;-69
2022/05/03 12:18:37;;;;;;;19.42;12.70;;;22.40;80.80;;;;;;5032780;28;20033;-70
2022/05/03 12:21:21;;;;;;;20.65;13.10;;;23.10;77.90;;;;;;5015141;28;20410;-68
2022/05/03 12:23:52;;;;;;;20.60;13.70;;;22.90;77.30;;;;;;5032636;28;20037;-69
2022/05/03 12:26:20;;;;;;;21.58;13.32;;;22.60;76.70;;;;;;5032841;28;20041;-69
2022/05/03 12:28:46;;;;;;;25.08;14.13;;;22.30;77.30;;;;;;5032650;28;20437;-68
2022/05/03 12:31:14;;;;;;;22.13;14.02;;;22.20;74.00;;;;;;5032604;28;20030;-70
2022/05/03 12:33:41;;;;;;;22.00;13.40;;;21.60;74.30;;;;;;5032550;28;20107;-70
2022/05/03 12:36:08;;;;;;;23.13;11.98;;;20.90;80.10;;;;;;5032285;28;20048;-71
2022/05/03 12:38:49;;;;;;;21.40;13.00;;;20.90;81.70;;;;;;5032576;28;20037;-70
2022/05/03 12:41:31;;;;;;;22.17;13.73;;;20.50;80.70;;;;;;5032392;28;20320;-71
2022/05/03 12:44:00;;;;;;;22.63;13.77;;;20.50;80.40;;;;;;5032429;28;20148;-69
2022/05/03 12:46:30;;;;;;;23.10;13.23;;;19.90;79.00;;;;;;5031917;28;20046;-70
2022/05/03 12:48:56;;;;;;;20.98;13.13;;;19.20;81.40;;;;;;5032464;28;20038;-69
2022/05/03 12:51:23;;;;;;;18.25;11.40;;;18.90;84.70;;;;;;5032246;28;20497;-71
2022/05/03 12:53:48;;;;;;;21.42;11.60;;;18.90;88.70;;;;;;5032536;28;20473;-69
2022/05/03 12:58:58;;;;;;;18.63;11.38;;;19.10;86.10;;;;;;5032410;28;20048;-70
2022/05/03 13:01:25;;;;;;;20.92;11.15;;;18.90;86.40;;;;;;5032278;28;20049;-70
2022/05/03 13:03:51;;;;;;;17.13;10.20;;;18.70;86.10;;;;;;5032440;28;20405;-70
2022/05/03 13:06:17;;;;;;;20.23;11.57;;;18.80;87.40;;;;;;5032058;28;20065;-70
2022/05/03 13:08:44;;;;;;;17.67;9.95;;;18.70;85.80;;;;;;5032160;28;20034;-71
2022/05/03 13:11:10;;;;;;;23.13;12.13;;;18.50;85.90;;;;;;5032150;28;20038;-69
2022/05/03 13:13:37;;;;;;;21.45;10.82;;;18.30;87.60;;;;;;5032131;28;20075;-69
2022/05/03 13:16:03;;;;;;;20.80;11.55;;;18.20;90.10;;;;;;5032418;28;20053;-71
2022/05/03 13:18:28;;;;;;;20.65;11.70;;;18.10;90.40;;;;;;5032292;28;20401;-72
2022/05/03 13:20:54;;;;;;;22.73;11.02;;;18.00;90.40;;;;;;5032149;28;20042;-72
2022/05/03 13:23:20;;;;;;;19.63;10.80;;;18.00;90.40;;;;;;5032006;28;20048;-71
2022/05/03 13:25:46;;;;;;;18.80;10.48;;;17.90;89.70;;;;;;5032126;28;20067;-72
2022/05/03 13:28:12;;;;;;;21.05;11.25;;;17.70;90.40;;;;;;5031861;28;20030;-70